Time;durP1;ratioP1;P1;durP2;ratioP2;P2;SDS_P1;SDS_P2;PMS_P1;PMS_P2;Temp;Humidity;BMP_temperature;BMP_pressure;BME280_temperature;BME280_humidity;BME280_pressure;Samples;Min_cycle;Max_cycle;Signal;HPM_P1;HPM_P2
2021/06/17 00:00:19;;;;;;;87.45;57.67;;;16.80;99.90;;;;;;2104211;28;20559;-71
2021/06/17 00:01:19;;;;;;;98.20;57.67;;;16.80;99.90;;;;;;2104546;28;20099;-71
2021/06/17 00:02:20;;;;;;;92.15;58.40;;;16.80;99.90;;;;;;2112476;28;20020;-71
2021/06/17 00:03:21;;;;;;;101.32;60.30;;;16.80;99.90;;;;;;2104338;28;20020;-71
2021/06/17 00:04:21;;;;;;;96.05;58.15;;;16.80;99.90;;;;;;2095543;28;20025;-70
2021/06/17 00:05:26;;;;;;;88.05;56.35;;;16.80;99.90;;;;;;2104162;28;20094;-70
2021/06/17 00:06:27;;;;;;;97.32;60.08;;;16.80;99.90;;;;;;2104203;28;20416;-70
2021/06/17 00:07:27;;;;;;;98.57;59.03;;;16.80;99.90;;;;;;2095514;28;20116;-70
2021/06/17 00:08:28;;;;;;;97.90;59.92;;;16.80;99.90;;;;;;2099188;28;20579;-70
2021/06/17 00:09:29;;;;;;;105.07;61.10;;;16.80;99.90;;;;;;2095769;28;20028;-71
2021/06/17 00:10:33;;;;;;;95.35;58.65;;;16.80;99.90;;;;;;2095445;28;20013;-71
2021/06/17 00:11:34;;;;;;;97.40;58.95;;;16.90;99.90;;;;;;2104098;28;20308;-71
2021/06/17 00:12:35;;;;;;;93.93;56.75;;;16.90;99.90;;;;;;2102672;28;20404;-71
2021/06/17 00:13:37;;;;;;;99.53;59.17;;;16.90;99.90;;;;;;2098845;28;20025;-70
2021/06/17 00:14:38;;;;;;;90.95;58.05;;;16.90;99.90;;;;;;2090910;28;20071;-70
2021/06/17 00:15:40;;;;;;;91.30;56.95;;;17.00;99.90;;;;;;2090684;28;20025;-70
2021/06/17 00:16:41;;;;;;;91.88;56.35;;;17.00;99.90;;;;;;2090165;28;20076;-70
2021/06/17 00:17:43;;;;;;;96.45;58.00;;;17.00;99.90;;;;;;2090384;28;20029;-71
2021/06/17 00:18:43;;;;;;;;;;;17.00;99.90;;;;;;2092297;28;20024;-71
2021/06/17 00:19:48;;;;;;;96.25;58.25;;;17.00;99.90;;;;;;2103320;28;19973;-70
2021/06/17 00:20:48;;;;;;;92.18;57.33;;;17.00;99.90;;;;;;2099013;28;20100;-71
2021/06/17 00:21:50;;;;;;;99.43;62.65;;;17.00;99.90;;;;;;2098379;28;20021;-72
2021/06/17 00:22:51;;;;;;;103.68;64.50;;;17.00;99.90;;;;;;2098524;28;20028;-71
2021/06/17 00:23:52;;;;;;;117.82;64.45;;;17.00;99.90;;;;;;2099102;28;20032;-70
2021/06/17 00:24:53;;;;;;;107.60;65.40;;;17.00;99.90;;;;;;2098556;28;20070;-71
2021/06/17 00:25:55;;;;;;;101.05;63.30;;;17.00;99.90;;;;;;2099192;28;20743;-71
2021/06/17 00:26:56;;;;;;;;;;;17.00;99.90;;;;;;2098817;28;20474;-71
2021/06/17 00:27:56;;;;;;;107.88;62.45;;;17.00;99.90;;;;;;2098400;28;19904;-71
2021/06/17 00:28:57;;;;;;;101.95;61.47;;;17.10;99.90;;;;;;2098554;28;20066;-71
2021/06/17 00:29:58;;;;;;;104.32;62.97;;;17.10;99.90;;;;;;2098389;28;20028;-71
2021/06/17 00:30:59;;;;;;;105.65;60.55;;;17.10;99.90;;;;;;2094363;28;20021;-71
2021/06/17 00:32:00;;;;;;;105.40;61.03;;;17.10;99.90;;;;;;2093586;28;20130;-71
2021/06/17 00:33:01;;;;;;;113.55;63.08;;;17.10;99.90;;;;;;2098994;28;20039;-71
2021/06/17 00:34:01;;;;;;;108.28;63.55;;;17.10;99.90;;;;;;2098145;28;20668;-71
2021/06/17 00:35:03;;;;;;;111.78;65.90;;;17.10;99.90;;;;;;2097411;28;20521;-71
2021/06/17 00:36:04;;;;;;;112.30;64.07;;;17.10;99.90;;;;;;2091722;28;20040;-71
2021/06/17 00:37:05;;;;;;;115.93;66.43;;;17.10;99.90;;;;;;2081666;28;20071;-71
2021/06/17 00:38:06;;;;;;;119.68;66.25;;;17.10;99.90;;;;;;2089870;28;20729;-71
2021/06/17 00:39:09;;;;;;;113.30;65.25;;;17.10;99.90;;;;;;2090426;28;20025;-71
2021/06/17 00:40:12;;;;;;;113.07;62.45;;;17.10;99.90;;;;;;2090412;28;20036;-71
2021/06/17 00:41:13;;;;;;;113.15;61.42;;;17.20;99.90;;;;;;2090319;28;20127;-71
2021/06/17 00:42:15;;;;;;;115.55;63.85;;;17.20;99.90;;;;;;2096609;28;20089;-71
2021/06/17 00:43:15;;;;;;;100.75;59.70;;;17.20;99.90;;;;;;2098671;28;20073;-70
2021/06/17 00:44:16;;;;;;;104.03;61.83;;;17.20;99.90;;;;;;2098485;28;20020;-70
2021/06/17 00:45:26;;;;;;;103.10;59.33;;;17.20;99.90;;;;;;2098847;28;20499;-71
2021/06/17 00:46:27;;;;;;;99.30;58.85;;;17.30;99.90;;;;;;2098895;28;20016;-71
2021/06/17 00:47:27;;;;;;;105.28;60.50;;;17.30;99.90;;;;;;2098757;28;20027;-70
2021/06/17 00:48:28;;;;;;;100.72;57.75;;;17.30;99.90;;;;;;2097939;28;20571;-72
2021/06/17 00:49:29;;;;;;;110.32;61.08;;;17.30;99.90;;;;;;2098272;28;20029;-71
2021/06/17 00:50:40;;;;;;;92.25;55.92;;;17.30;99.90;;;;;;2097623;28;20044;-71
2021/06/17 00:51:41;;;;;;;98.90;56.70;;;17.30;99.90;;;;;;2103285;28;20074;-71
2021/06/17 00:52:43;;;;;;;105.43;58.85;;;17.30;99.90;;;;;;2098351;28;20025;-70
2021/06/17 00:53:44;;;;;;;102.75;56.83;;;17.30;99.90;;;;;;2098424;28;20108;-71
2021/06/17 00:54:45;;;;;;;101.35;57.05;;;17.30;99.90;;;;;;2097819;28;20534;-71
2021/06/17 00:55:47;;;;;;;107.10;59.20;;;17.30;99.90;;;;;;2098132;28;20029;-72
2021/06/17 00:56:48;;;;;;;103.47;58.97;;;17.30;99.90;;;;;;2098062;28;20048;-71
2021/06/17 00:57:48;;;;;;;110.43;60.17;;;17.30;99.90;;;;;;2098168;28;20086;-70
2021/06/17 00:58:51;;;;;;;103.28;58.15;;;17.30;99.90;;;;;;2098076;28;20496;-71
2021/06/17 00:59:52;;;;;;;104.72;57.95;;;17.30;99.90;;;;;;2097093;28;20078;-71
2021/06/17 01:00:53;;;;;;;105.82;57.85;;;17.40;99.90;;;;;;2106335;28;20074;-71
2021/06/17 01:01:55;;;;;;;103.68;58.17;;;17.30;99.90;;;;;;2097797;28;20049;-70
2021/06/17 01:02:55;;;;;;;109.10;58.00;;;17.30;99.90;;;;;;2098184;28;20020;-71
2021/06/17 01:03:56;;;;;;;105.55;58.03;;;17.30;99.90;;;;;;2098261;28;20043;-70
2021/06/17 01:04:57;;;;;;;109.70;58.38;;;17.40;99.90;;;;;;2098047;28;20036;-71
2021/06/17 01:05:58;;;;;;;107.78;57.53;;;17.40;99.90;;;;;;2098000;28;20496;-71
2021/06/17 01:06:59;;;;;;;99.65;55.08;;;17.40;99.90;;;;;;2098016;28;20055;-70
2021/06/17 01:08:02;;;;;;;103.55;55.08;;;17.40;99.90;;;;;;2098781;28;20025;-71
2021/06/17 01:09:07;;;;;;;99.85;54.45;;;17.40;99.90;;;;;;2098465;28;20206;-71
2021/06/17 01:10:37;;;;;;;109.15;57.70;;;17.40;99.90;;;;;;2098760;28;20099;-71
2021/06/17 01:12:21;;;;;;;94.13;53.33;;;17.40;99.90;;;;;;2097295;28;20020;-70
2021/06/17 01:13:37;;;;;;;100.45;54.58;;;17.50;99.90;;;;;;2096783;28;20020;-72
2021/06/17 01:14:59;;;;;;;101.55;53.53;;;17.50;99.90;;;;;;2098446;28;20025;-71
2021/06/17 01:16:36;;;;;;;100.15;54.55;;;17.50;99.90;;;;;;2098028;28;20113;-72
2021/06/17 01:17:42;;;;;;;100.68;54.47;;;17.50;99.90;;;;;;2086346;28;20504;-70
2021/06/17 01:18:58;;;;;;;101.32;53.75;;;17.50;99.90;;;;;;2089901;28;20025;-71
2021/06/17 01:20:18;;;;;;;111.53;55.58;;;17.50;99.90;;;;;;2090475;28;20025;-71
2021/06/17 01:21:24;;;;;;;108.20;55.13;;;17.50;99.90;;;;;;2089217;28;20029;-72
2021/06/17 01:22:32;;;;;;;105.75;55.70;;;17.50;99.90;;;;;;2096514;28;20025;-70
2021/06/17 01:23:52;;;;;;;110.40;57.53;;;17.50;99.90;;;;;;2098358;28;20057;-70
2021/06/17 01:25:13;;;;;;;111.72;57.20;;;17.50;99.90;;;;;;2096831;28;20555;-70
2021/06/17 01:26:20;;;;;;;101.57;56.00;;;17.50;99.90;;;;;;2097209;28;20021;-70
2021/06/17 01:27:58;;;;;;;114.03;57.47;;;17.50;99.90;;;;;;2097585;28;20517;-72
2021/06/17 01:29:00;;;;;;;108.28;54.50;;;17.50;99.90;;;;;;2089886;28;20086;-71
2021/06/17 01:30:11;;;;;;;109.63;56.70;;;17.50;99.90;;;;;;2090244;28;20365;-71
2021/06/17 01:31:18;;;;;;;124.57;59.85;;;17.60;99.90;;;;;;2088808;28;20024;-71
2021/06/17 01:32:20;;;;;;;116.20;57.63;;;17.50;99.90;;;;;;2089697;28;20013;-71
2021/06/17 01:33:25;;;;;;;114.88;56.67;;;17.60;99.90;;;;;;2098057;28;20028;-71
2021/06/17 01:34:27;;;;;;;109.28;56.60;;;17.60;99.90;;;;;;2103984;28;20023;-71
2021/06/17 01:35:31;;;;;;;115.38;55.60;;;17.60;99.90;;;;;;2099908;28;20479;-71
2021/06/17 01:36:39;;;;;;;117.53;56.47;;;17.60;99.90;;;;;;2098058;28;20044;-71
2021/06/17 01:37:41;;;;;;;92.90;49.78;;;17.60;99.90;;;;;;2098366;28;20560;-71
2021/06/17 01:38:46;;;;;;;83.15;48.10;;;17.50;99.90;;;;;;2098261;28;20043;-71
2021/06/17 01:39:47;;;;;;;89.45;49.28;;;17.50;99.90;;;;;;2098409;28;20024;-71
2021/06/17 01:40:49;;;;;;;78.78;45.10;;;17.40;99.90;;;;;;2097935;28;20023;-71
2021/06/17 01:41:52;;;;;;;90.10;45.97;;;17.30;99.90;;;;;;2097105;28;20399;-71
2021/06/17 01:42:55;;;;;;;90.28;49.22;;;17.20;99.90;;;;;;2098343;28;20021;-71
2021/06/17 01:43:57;;;;;;;87.63;52.15;;;17.20;99.90;;;;;;2098204;28;20104;-71
2021/06/17 01:45:00;;;;;;;74.70;46.25;;;17.10;99.90;;;;;;2097406;28;20032;-71
2021/06/17 01:46:02;;;;;;;84.50;50.60;;;17.10;99.90;;;;;;2097524;28;20387;-71
2021/06/17 01:47:04;;;;;;;93.45;51.55;;;17.00;99.90;;;;;;2097701;28;20066;-71
2021/06/17 01:48:07;;;;;;;80.13;45.13;;;17.00;99.90;;;;;;2098185;28;20146;-71
2021/06/17 01:49:08;;;;;;;77.82;49.15;;;16.90;99.90;;;;;;2098160;28;20078;-71
2021/06/17 01:50:14;;;;;;;85.43;47.65;;;16.90;99.90;;;;;;2096660;28;20488;-72
2021/06/17 01:51:20;;;;;;;76.05;44.63;;;16.90;99.90;;;;;;2097317;28;20507;-71
2021/06/17 01:52:23;;;;;;;79.07;46.88;;;16.80;99.90;;;;;;2097423;28;20047;-71
2021/06/17 01:53:24;;;;;;;72.22;44.63;;;16.80;99.90;;;;;;2097380;28;20399;-71
2021/06/17 01:54:27;;;;;;;70.53;43.17;;;16.80;99.90;;;;;;2102287;28;20030;-71
2021/06/17 01:55:36;;;;;;;76.22;45.45;;;16.80;99.90;;;;;;2098313;28;20020;-71
2021/06/17 01:56:38;;;;;;;65.75;43.10;;;16.80;99.90;;;;;;2098225;28;20102;-72
2021/06/17 01:57:39;;;;;;;71.75;42.28;;;16.80;99.90;;;;;;2099333;28;20939;-72
2021/06/17 01:58:41;;;;;;;70.10;46.97;;;16.90;99.90;;;;;;2103601;28;20036;-71
2021/06/17 01:59:45;;;;;;;72.10;44.60;;;16.90;99.90;;;;;;2098073;28;20024;-71
2021/06/17 02:00:47;;;;;;;72.40;43.72;;;16.90;99.90;;;;;;2097432;28;20408;-71
2021/06/17 02:01:50;;;;;;;78.47;43.53;;;16.90;99.90;;;;;;2097217;28;20126;-70
2021/06/17 02:02:52;;;;;;;73.28;44.35;;;16.90;99.90;;;;;;2096786;28;20055;-71
2021/06/17 02:03:53;;;;;;;86.55;47.17;;;16.90;99.90;;;;;;2098040;28;20021;-71
2021/06/17 02:04:55;;;;;;;70.15;43.03;;;16.90;99.90;;;;;;2098140;28;20032;-71
2021/06/17 02:05:56;;;;;;;70.18;43.08;;;16.90;99.90;;;;;;2097569;28;20452;-71
2021/06/17 02:06:59;;;;;;;70.72;41.72;;;16.90;99.90;;;;;;2097204;28;20035;-70
2021/06/17 02:08:03;;;;;;;72.13;42.72;;;16.90;99.90;;;;;;2097314;28;20074;-72
2021/06/17 02:09:05;;;;;;;74.05;44.35;;;16.90;99.90;;;;;;2096587;28;20052;-70
2021/06/17 02:10:07;;;;;;;79.45;44.70;;;16.90;99.90;;;;;;2097850;28;20104;-71
2021/06/17 02:11:08;;;;;;;66.05;39.30;;;17.00;99.90;;;;;;2097610;28;20021;-71
2021/06/17 02:12:09;;;;;;;63.83;39.00;;;17.00;99.90;;;;;;2097897;28;20521;-71
2021/06/17 02:13:12;;;;;;;64.90;38.22;;;17.00;99.90;;;;;;2097290;28;20294;-72
2021/06/17 02:14:14;;;;;;;64.95;38.35;;;17.00;99.90;;;;;;2096848;28;20033;-71
2021/06/17 02:15:17;;;;;;;73.97;38.00;;;17.00;99.90;;;;;;2097696;28;20570;-71
2021/06/17 02:16:20;;;;;;;63.70;38.28;;;17.00;99.90;;;;;;2100046;28;20046;-71
2021/06/17 02:17:22;;;;;;;78.93;38.47;;;17.00;99.90;;;;;;2092830;28;20589;-71
2021/06/17 02:18:25;;;;;;;69.57;38.08;;;17.00;99.90;;;;;;2097042;28;20046;-71
2021/06/17 02:19:28;;;;;;;67.78;39.25;;;17.00;99.90;;;;;;2097730;28;20547;-71
2021/06/17 02:20:29;;;;;;;70.80;39.85;;;17.00;99.90;;;;;;2096782;28;20470;-71
2021/06/17 02:21:31;;;;;;;64.60;37.03;;;17.00;99.90;;;;;;2097073;28;20048;-71
2021/06/17 02:22:34;;;;;;;64.75;36.97;;;17.00;99.90;;;;;;2096406;28;20021;-72
2021/06/17 02:23:37;;;;;;;61.15;32.30;;;17.10;99.90;;;;;;2104452;28;20419;-71
2021/06/17 02:24:40;;;;;;;57.38;32.53;;;17.00;99.90;;;;;;2097626;28;20028;-71
2021/06/17 02:25:44;;;;;;;52.78;31.30;;;17.00;99.90;;;;;;2097647;28;20052;-72
2021/06/17 02:26:46;;;;;;;64.13;35.13;;;17.00;99.90;;;;;;2097821;28;20036;-71
2021/06/17 02:27:53;;;;;;;63.00;34.22;;;17.10;99.90;;;;;;2097794;28;20070;-72
2021/06/17 02:28:57;;;;;;;54.35;32.00;;;17.00;99.90;;;;;;2097133;28;20024;-71
2021/06/17 02:30:05;;;;;;;59.03;31.33;;;17.00;99.90;;;;;;2097782;28;20024;-71
2021/06/17 02:31:09;;;;;;;63.20;34.05;;;17.00;99.90;;;;;;2096950;28;20411;-71
2021/06/17 02:32:14;;;;;;;45.55;27.50;;;17.00;99.90;;;;;;2096851;28;20031;-71
2021/06/17 02:33:18;;;;;;;52.55;29.40;;;17.00;99.90;;;;;;2097370;28;20411;-71
2021/06/17 02:34:19;;;;;;;58.35;30.05;;;17.00;99.90;;;;;;2097773;28;20025;-71
2021/06/17 02:35:24;;;;;;;50.17;28.17;;;17.00;99.90;;;;;;2097613;28;20028;-71
2021/06/17 02:36:26;;;;;;;57.00;33.00;;;17.00;99.90;;;;;;2097388;28;20163;-71
2021/06/17 02:37:27;;;;;;;;;;;17.00;99.90;;;;;;2097664;28;20055;-71
2021/06/17 02:38:30;;;;;;;54.65;30.67;;;17.00;99.90;;;;;;2101160;28;19904;-71
2021/06/17 02:39:31;;;;;;;53.92;29.17;;;17.00;99.90;;;;;;2096689;28;20718;-71
2021/06/17 02:40:34;;;;;;;47.13;25.15;;;17.00;99.90;;;;;;2096889;28;20092;-71
2021/06/17 02:41:40;;;;;;;53.28;27.60;;;17.00;99.90;;;;;;2097636;28;20185;-71
2021/06/17 02:42:41;;;;;;;46.28;24.77;;;17.00;99.90;;;;;;2097568;28;20099;-72
2021/06/17 02:43:46;;;;;;;45.72;26.75;;;17.00;99.90;;;;;;2097628;28;20605;-71
2021/06/17 02:44:49;;;;;;;47.75;24.05;;;17.00;99.90;;;;;;2097724;28;20025;-72
2021/06/17 02:45:50;;;;;;;45.10;23.20;;;17.00;99.90;;;;;;2096320;28;20024;-71
2021/06/17 02:46:52;;;;;;;49.00;25.58;;;17.00;99.90;;;;;;2097052;28;20025;-71
2021/06/17 02:47:54;;;;;;;37.30;21.42;;;17.00;99.90;;;;;;2097634;28;20073;-71
2021/06/17 02:48:56;;;;;;;53.28;23.38;;;17.00;99.90;;;;;;2097018;28;20537;-71
2021/06/17 02:49:56;;;;;;;37.85;21.40;;;17.00;99.90;;;;;;2096676;28;20426;-71
2021/06/17 02:50:57;;;;;;;49.58;23.48;;;17.00;99.90;;;;;;2097621;28;20036;-71
2021/06/17 02:51:58;;;;;;;44.63;21.60;;;17.00;99.90;;;;;;2097102;28;20036;-71
2021/06/17 02:52:59;;;;;;;44.30;21.23;;;17.00;99.90;;;;;;2102720;28;20604;-71
2021/06/17 02:54:00;;;;;;;39.08;22.92;;;16.90;99.90;;;;;;2105421;28;20423;-71
2021/06/17 02:55:01;;;;;;;40.28;23.55;;;16.90;99.90;;;;;;2105541;28;20465;-71
2021/06/17 02:56:07;;;;;;;35.58;21.17;;;17.00;99.90;;;;;;2106023;28;20035;-71
2021/06/17 02:57:36;;;;;;;31.92;18.95;;;17.00;99.90;;;;;;2105576;28;20518;-71
2021/06/17 02:58:53;;;;;;;36.42;19.17;;;17.00;99.90;;;;;;2095261;28;20112;-71
2021/06/17 03:00:06;;;;;;;41.08;20.67;;;17.00;99.90;;;;;;2096861;28;20028;-71
2021/06/17 03:01:38;;;;;;;33.70;22.38;;;17.00;99.90;;;;;;2097179;28;20036;-70
2021/06/17 03:03:07;;;;;;;34.53;22.03;;;17.00;99.90;;;;;;2096481;28;20059;-70
2021/06/17 03:04:33;;;;;;;40.35;22.00;;;17.00;99.90;;;;;;2098074;28;20346;-70
2021/06/17 03:05:56;;;;;;;48.50;23.42;;;17.00;99.90;;;;;;2094517;28;20032;-70
2021/06/17 03:06:58;;;;;;;42.35;22.55;;;17.00;99.90;;;;;;2096087;28;21088;-71
2021/06/17 03:08:28;;;;;;;46.67;22.50;;;17.00;99.90;;;;;;2101515;28;20493;-71
2021/06/17 03:09:43;;;;;;;44.53;23.00;;;17.00;99.90;;;;;;2097739;28;20025;-71
2021/06/17 03:10:48;;;;;;;42.35;23.95;;;17.10;99.90;;;;;;2097704;28;20073;-71
2021/06/17 03:11:53;;;;;;;46.45;25.92;;;17.00;99.90;;;;;;2097617;28;20064;-72
2021/06/17 03:12:55;;;;;;;36.88;22.00;;;17.10;99.90;;;;;;2097891;28;20440;-71
2021/06/17 03:13:58;;;;;;;43.15;23.73;;;17.10;99.90;;;;;;2105273;28;20586;-70
2021/06/17 03:15:01;;;;;;;41.15;23.73;;;17.10;99.90;;;;;;2095855;28;20579;-70
2021/06/17 03:16:03;;;;;;;41.83;23.67;;;17.10;99.90;;;;;;2088898;28;20075;-71
2021/06/17 03:17:05;;;;;;;47.03;24.70;;;17.10;99.90;;;;;;2096271;28;20020;-71
2021/06/17 03:18:09;;;;;;;50.33;26.58;;;17.10;99.90;;;;;;2089532;28;20029;-70
2021/06/17 03:19:11;;;;;;;45.25;24.88;;;17.20;99.90;;;;;;2094797;28;20108;-71
2021/06/17 03:20:14;;;;;;;39.30;24.02;;;17.20;99.90;;;;;;2097739;28;20056;-70
2021/06/17 03:21:15;;;;;;;37.42;21.92;;;17.20;99.90;;;;;;2097710;28;20524;-71
2021/06/17 03:22:16;;;;;;;41.58;24.70;;;17.30;99.90;;;;;;2098387;28;20036;-70
2021/06/17 03:23:20;;;;;;;39.65;24.10;;;17.20;99.90;;;;;;2097954;28;20025;-70
2021/06/17 03:24:25;;;;;;;42.15;24.67;;;17.20;99.90;;;;;;2096886;28;20039;-71
2021/06/17 03:25:26;;;;;;;42.17;24.40;;;17.30;99.90;;;;;;2089189;28;20025;-70
2021/06/17 03:26:28;;;;;;;42.60;24.23;;;17.30;99.90;;;;;;2088792;28;20135;-71
2021/06/17 03:27:29;;;;;;;44.03;24.48;;;17.30;99.90;;;;;;2097053;28;20013;-70
2021/06/17 03:28:31;;;;;;;47.85;27.25;;;17.30;99.90;;;;;;2097600;28;20485;-71
2021/06/17 03:29:40;;;;;;;48.05;25.10;;;17.30;99.90;;;;;;2099095;28;20033;-71
2021/06/17 03:30:46;;;;;;;41.45;24.70;;;17.30;99.90;;;;;;2102002;28;20029;-71
2021/06/17 03:31:46;;;;;;;45.70;26.10;;;17.30;99.90;;;;;;2097834;28;20387;-71
2021/06/17 03:32:50;;;;;;;47.05;25.90;;;17.30;99.90;;;;;;2097065;28;20036;-70
2021/06/17 03:33:52;;;;;;;48.00;26.75;;;17.30;99.90;;;;;;2096920;28;20024;-71
2021/06/17 03:34:54;;;;;;;45.53;27.17;;;17.30;99.90;;;;;;2096476;28;20025;-71
2021/06/17 03:35:56;;;;;;;49.80;29.75;;;17.40;99.90;;;;;;2088993;28;20037;-71
2021/06/17 03:36:58;;;;;;;48.58;28.23;;;17.30;99.90;;;;;;2096970;28;20566;-72
2021/06/17 03:38:02;;;;;;;45.83;27.60;;;17.30;99.90;;;;;;2089247;28;20025;-71
2021/06/17 03:39:05;;;;;;;44.10;27.65;;;17.30;99.90;;;;;;2088483;28;20060;-70
2021/06/17 03:40:06;;;;;;;48.25;27.05;;;17.40;99.90;;;;;;2088669;28;20017;-71
2021/06/17 03:41:10;;;;;;;47.03;27.98;;;17.40;99.90;;;;;;2091030;28;20632;-71
2021/06/17 03:42:12;;;;;;;50.28;27.63;;;17.40;99.90;;;;;;2096554;28;20082;-71
2021/06/17 03:43:13;;;;;;;;;;;17.40;99.90;;;;;;2097090;28;20025;-71
2021/06/17 03:44:15;;;;;;;49.17;29.52;;;17.40;99.90;;;;;;2097669;28;19904;-71
2021/06/17 03:45:16;;;;;;;;;;;17.40;99.90;;;;;;2098150;28;20013;-71
2021/06/17 03:46:19;;;;;;;54.38;29.38;;;17.40;99.90;;;;;;2095856;28;20402;-71
2021/06/17 03:47:24;;;;;;;46.08;28.15;;;17.40;99.90;;;;;;2097552;28;20096;-71
2021/06/17 03:48:26;;;;;;;47.55;28.08;;;17.40;99.90;;;;;;2097196;28;20017;-71
2021/06/17 03:49:29;;;;;;;56.58;30.20;;;17.50;99.90;;;;;;2098421;28;20098;-71
2021/06/17 03:50:31;;;;;;;52.22;30.75;;;17.50;99.90;;;;;;2098727;28;20514;-71
2021/06/17 03:51:31;;;;;;;;;;;17.50;99.90;;;;;;2099622;28;20399;-71
2021/06/17 03:52:32;;;;;;;58.33;30.65;;;17.50;99.90;;;;;;2099138;28;19911;-71
2021/06/17 03:53:34;;;;;;;53.78;31.70;;;17.50;99.90;;;;;;2099308;28;20029;-71
2021/06/17 03:54:35;;;;;;;58.83;32.95;;;17.50;99.90;;;;;;2099224;28;20535;-71
2021/06/17 03:55:39;;;;;;;58.17;33.97;;;17.50;99.90;;;;;;2103416;28;20067;-71
2021/06/17 03:56:41;;;;;;;58.88;33.53;;;17.50;99.90;;;;;;2099579;28;20036;-71
2021/06/17 03:57:42;;;;;;;;;;;17.50;99.90;;;;;;2098931;28;20028;-71
2021/06/17 03:58:44;;;;;;;59.30;35.03;;;17.50;99.90;;;;;;2098666;28;19912;-71
2021/06/17 03:59:45;;;;;;;65.45;35.83;;;17.50;99.90;;;;;;2098653;28;20036;-71
2021/06/17 04:00:46;;;;;;;69.55;35.70;;;17.50;99.90;;;;;;2098492;28;20025;-71
2021/06/17 04:01:47;;;;;;;71.90;37.58;;;17.50;99.90;;;;;;2097651;28;20051;-72
2021/06/17 04:02:47;;;;;;;68.28;36.40;;;17.50;99.90;;;;;;2099033;28;20428;-71
2021/06/17 04:03:50;;;;;;;64.50;36.38;;;17.50;99.90;;;;;;2099136;28;20036;-71
2021/06/17 04:04:52;;;;;;;64.53;35.40;;;17.50;99.90;;;;;;2099041;28;20020;-71
2021/06/17 04:05:56;;;;;;;69.20;37.03;;;17.50;99.90;;;;;;2098106;28;20020;-71
2021/06/17 04:07:01;;;;;;;61.28;35.90;;;17.50;99.90;;;;;;2098355;28;20532;-71
2021/06/17 04:08:05;;;;;;;64.97;35.35;;;17.50;99.90;;;;;;2098466;28;20044;-71
2021/06/17 04:09:06;;;;;;;60.22;36.20;;;17.60;99.90;;;;;;2097835;28;20487;-71
2021/06/17 04:10:09;;;;;;;60.85;36.90;;;17.60;99.90;;;;;;2098899;28;20408;-71
2021/06/17 04:11:11;;;;;;;70.82;37.22;;;17.60;99.90;;;;;;2099076;28;20488;-71
2021/06/17 04:12:15;;;;;;;67.38;37.13;;;17.60;99.90;;;;;;2098411;28;20033;-71
2021/06/17 04:13:17;;;;;;;75.35;39.22;;;17.60;99.90;;;;;;2098600;28;20028;-71
2021/06/17 04:14:18;;;;;;;69.78;39.00;;;17.60;99.90;;;;;;2097350;28;20044;-71
2021/06/17 04:15:19;;;;;;;67.78;38.45;;;17.60;99.90;;;;;;2089961;28;20033;-71
2021/06/17 04:16:25;;;;;;;79.85;40.65;;;17.60;99.90;;;;;;2081959;28;20053;-72
2021/06/17 04:17:29;;;;;;;76.03;38.35;;;17.60;99.90;;;;;;2082515;28;20084;-71
2021/06/17 04:18:31;;;;;;;69.72;37.00;;;17.60;99.90;;;;;;2090103;28;20016;-72
2021/06/17 04:19:36;;;;;;;70.05;39.88;;;17.60;99.90;;;;;;2090234;28;20031;-71
2021/06/17 04:20:41;;;;;;;68.15;37.25;;;17.60;99.90;;;;;;2090200;28;20778;-71
2021/06/17 04:21:42;;;;;;;70.03;39.13;;;17.60;99.90;;;;;;2098361;28;20031;-71
2021/06/17 04:22:47;;;;;;;71.72;38.33;;;17.60;99.90;;;;;;2099047;28;20025;-72
2021/06/17 04:23:53;;;;;;;73.60;38.78;;;17.70;99.90;;;;;;2098326;28;20025;-71
2021/06/17 04:25:04;;;;;;;73.13;39.65;;;17.70;99.90;;;;;;2097755;28;20025;-71
2021/06/17 04:26:06;;;;;;;73.53;41.47;;;17.70;99.90;;;;;;2093054;28;20021;-70
2021/06/17 04:27:07;;;;;;;75.35;39.90;;;17.70;99.90;;;;;;2099050;28;20025;-70
2021/06/17 04:28:09;;;;;;;76.28;39.08;;;17.70;99.90;;;;;;2098991;28;20025;-70
2021/06/17 04:29:10;;;;;;;72.38;39.03;;;17.70;99.90;;;;;;2098342;28;20119;-70
2021/06/17 04:30:11;;;;;;;78.28;40.55;;;17.70;99.90;;;;;;2098472;28;20523;-71
2021/06/17 04:31:14;;;;;;;71.10;39.35;;;17.70;99.90;;;;;;2098202;28;20494;-71
2021/06/17 04:32:17;;;;;;;77.72;39.20;;;17.70;99.90;;;;;;2098282;28;20036;-71
2021/06/17 04:33:21;;;;;;;69.82;37.97;;;17.70;99.90;;;;;;2098470;28;20053;-71
2021/06/17 04:34:23;;;;;;;71.80;37.30;;;17.80;99.90;;;;;;2098702;28;20112;-71
2021/06/17 04:35:25;;;;;;;71.63;38.75;;;17.80;99.90;;;;;;2098733;28;20056;-71
2021/06/17 04:36:25;;;;;;;68.90;38.65;;;17.80;99.90;;;;;;2098846;28;20036;-72
2021/06/17 04:37:27;;;;;;;69.18;36.30;;;17.80;99.90;;;;;;2098223;28;20387;-70
2021/06/17 04:38:28;;;;;;;72.35;38.55;;;17.80;99.90;;;;;;2098199;28;20096;-70
2021/06/17 04:39:29;;;;;;;78.53;38.08;;;17.80;99.90;;;;;;2103274;28;20117;-70
2021/06/17 04:40:32;;;;;;;70.15;39.30;;;17.80;99.90;;;;;;2106282;28;20024;-70
2021/06/17 04:41:33;;;;;;;77.55;38.85;;;17.80;99.90;;;;;;2106583;28;20028;-71
2021/06/17 04:42:35;;;;;;;74.55;39.47;;;17.80;99.90;;;;;;2106622;28;20020;-72
2021/06/17 04:43:36;;;;;;;81.10;38.85;;;17.80;99.90;;;;;;2106178;28;20123;-70
2021/06/17 04:44:42;;;;;;;74.95;37.97;;;17.80;99.90;;;;;;2106215;28;20035;-70
2021/06/17 04:45:44;;;;;;;67.60;36.95;;;17.80;99.90;;;;;;2101667;28;20028;-70
2021/06/17 04:46:47;;;;;;;69.90;36.95;;;17.80;99.90;;;;;;2089360;28;20035;-71
2021/06/17 04:47:51;;;;;;;65.20;35.45;;;17.80;99.90;;;;;;2097873;28;20648;-70
2021/06/17 04:48:53;;;;;;;68.07;37.10;;;17.80;99.90;;;;;;2098410;28;20021;-69
2021/06/17 04:49:53;;;;;;;69.43;37.90;;;17.90;99.90;;;;;;2098619;28;20028;-71
2021/06/17 04:50:55;;;;;;;64.43;35.63;;;17.80;99.90;;;;;;2098637;28;20099;-70
2021/06/17 04:51:57;;;;;;;71.68;37.60;;;17.80;99.90;;;;;;2100052;28;20404;-70
2021/06/17 04:52:58;;;;;;;72.78;36.08;;;17.90;99.90;;;;;;2103979;28;20090;-71
2021/06/17 04:53:59;;;;;;;65.85;34.85;;;17.80;99.90;;;;;;2098639;28;20059;-70
2021/06/17 04:54:59;;;;;;;66.97;36.70;;;17.90;99.90;;;;;;2098828;28;20364;-71
2021/06/17 04:56:00;;;;;;;64.18;34.83;;;17.80;99.90;;;;;;2098576;28;20021;-72
2021/06/17 04:57:01;;;;;;;69.47;36.50;;;17.80;99.90;;;;;;2098083;28;20074;-71
2021/06/17 04:58:02;;;;;;;65.88;35.92;;;17.90;99.90;;;;;;2098212;28;20020;-71
2021/06/17 04:59:02;;;;;;;66.93;37.58;;;17.90;99.90;;;;;;2097782;28;20048;-71
2021/06/17 05:00:04;;;;;;;71.03;37.65;;;17.90;99.90;;;;;;2102296;28;20027;-70
2021/06/17 05:01:05;;;;;;;66.20;37.70;;;17.90;99.90;;;;;;2097944;28;20030;-70
2021/06/17 05:02:06;;;;;;;70.28;38.30;;;17.90;99.90;;;;;;2097697;28;20115;-70
2021/06/17 05:03:07;;;;;;;68.70;38.47;;;17.90;99.90;;;;;;2098379;28;20032;-70
2021/06/17 05:04:09;;;;;;;70.30;37.43;;;17.90;99.90;;;;;;2098763;28;20049;-71
2021/06/17 05:05:10;;;;;;;72.68;39.08;;;17.90;99.90;;;;;;2098181;28;20270;-71
2021/06/17 05:06:12;;;;;;;68.40;38.85;;;17.90;99.90;;;;;;2097230;28;20020;-71
2021/06/17 05:10:48;;;;;;;78.47;41.05;;;18.00;99.90;;;;;;2097432;28;20017;-70
2021/06/17 05:11:52;;;;;;;87.72;40.85;;;17.90;99.90;;;;;;2097799;28;20031;-71
2021/06/17 05:12:53;;;;;;;80.22;41.25;;;17.90;99.90;;;;;;2097980;28;20492;-71
2021/06/17 05:13:54;;;;;;;86.47;42.13;;;17.90;99.90;;;;;;2097049;28;20155;-71
2021/06/17 05:14:54;;;;;;;86.50;42.30;;;17.90;99.90;;;;;;2096286;28;20760;-71
2021/06/17 05:16:00;;;;;;;88.43;44.13;;;18.00;99.90;;;;;;2097674;28;20040;-71
2021/06/17 05:17:01;;;;;;;90.97;44.80;;;17.90;99.90;;;;;;2098147;28;20029;-71
2021/06/17 05:18:02;;;;;;;79.40;41.75;;;17.90;99.90;;;;;;2097505;28;20127;-71
2021/06/17 05:19:03;;;;;;;88.57;44.20;;;17.90;99.90;;;;;;2097561;28;20092;-70
2021/06/17 05:20:07;;;;;;;90.30;44.55;;;17.90;99.90;;;;;;2097409;28;20458;-70
2021/06/17 05:21:08;;;;;;;96.63;45.50;;;17.90;99.90;;;;;;2097271;28;20033;-72
2021/06/17 05:22:11;;;;;;;97.40;45.67;;;18.00;99.90;;;;;;2099929;28;20032;-72
2021/06/17 05:23:18;;;;;;;93.78;45.47;;;17.90;99.90;;;;;;2098398;28;20025;-72
2021/06/17 05:24:19;;;;;;;98.57;46.83;;;17.90;99.90;;;;;;2098507;28;20047;-72
2021/06/17 05:25:20;;;;;;;97.32;46.17;;;18.00;99.90;;;;;;2098908;28;20025;-71
2021/06/17 05:26:22;;;;;;;91.60;45.30;;;17.90;99.90;;;;;;2098868;28;20040;-71
2021/06/17 05:27:23;;;;;;;99.53;47.28;;;17.90;99.90;;;;;;2099517;28;20009;-71